createdAt,value
2022-08-07T00:02:59.954Z,1.60
2022-08-07T00:09:17.034Z,1.70
2022-08-07T00:15:22.970Z,1.50
2022-08-07T00:21:56.246Z,1.60
2022-08-07T00:27:53.616Z,1.70
2022-08-07T00:33:58.068Z,1.40
2022-08-07T00:39:59.747Z,1.30
2022-08-07T00:46:01.894Z,1.40
2022-08-07T00:52:07.101Z,1.20
2022-08-07T00:58:11.551Z,1.60
2022-08-07T01:04:24.545Z,1.30
2022-08-07T01:10:26.485Z,1.25
2022-08-07T01:16:30.269Z,1.13
2022-08-07T01:22:34.069Z,1.15
2022-08-07T01:28:35.868Z,1.10
2022-08-07T01:34:38.351Z,1.20
2022-08-07T01:40:45.774Z,1.30
2022-08-07T01:46:51.459Z,1.30
2022-08-07T01:52:54.934Z,1.10
2022-08-07T01:59:07.855Z,1.23
2022-08-07T02:05:47.917Z,1.23
2022-08-07T02:12:02.955Z,1.15
2022-08-07T02:18:11.419Z,1.20
2022-08-07T02:24:17.705Z,1.40
2022-08-07T02:30:19.747Z,1.30
2022-08-07T02:36:30.778Z,1.20
2022-08-07T02:42:37.746Z,1.30
2022-08-07T02:48:39.721Z,1.40
2022-08-07T02:54:50.504Z,1.40
2022-08-07T03:00:57.200Z,1.53
2022-08-07T03:06:59.868Z,1.60
2022-08-07T03:13:10.192Z,1.33
2022-08-07T03:19:12.624Z,1.60
2022-08-07T03:25:15.769Z,1.50
2022-08-07T03:31:24.672Z,1.37
2022-08-07T03:37:45.955Z,1.35
2022-08-07T03:43:57.275Z,1.50
2022-08-07T03:50:02.893Z,1.30
2022-08-07T03:56:10.814Z,1.50
2022-08-07T04:02:15.777Z,1.50
2022-08-07T04:08:21.201Z,1.50
2022-08-07T04:14:38.715Z,1.88
2022-08-07T04:20:54.731Z,1.60
2022-08-07T04:26:59.634Z,1.60
2022-08-07T04:33:07.535Z,1.67
2022-08-07T04:39:10.740Z,1.60
2022-08-07T04:45:13.706Z,1.77
2022-08-07T04:51:21.342Z,1.60
2022-08-07T04:58:13.159Z,1.50
2022-08-07T05:04:07.683Z,1.50
2022-08-07T05:10:16.328Z,1.40
2022-08-07T05:16:20.324Z,1.30
2022-08-07T05:22:27.726Z,1.60
2022-08-07T05:28:35.381Z,1.80
2022-08-07T05:34:38.239Z,1.70
2022-08-07T05:40:50.700Z,1.75
2022-08-07T05:46:55.075Z,1.80
2022-08-07T05:53:00.497Z,1.40
2022-08-07T05:59:03.857Z,1.40
2022-08-07T06:05:10.922Z,1.60
2022-08-07T06:11:17.896Z,1.60
2022-08-07T06:17:22.425Z,1.70
2022-08-07T06:24:37.843Z,1.60
2022-08-07T06:29:54.460Z,1.70
2022-08-07T06:36:12.873Z,1.43
2022-08-07T06:42:35.121Z,1.42
2022-08-07T06:48:46.032Z,1.50
2022-08-07T06:55:33.378Z,1.50
2022-08-07T07:01:14.177Z,1.40
2022-08-07T07:07:19.364Z,3.40
2022-08-07T07:13:56.657Z,1.60
2022-08-07T07:20:02.907Z,1.30
2022-08-07T07:26:33.921Z,1.20
2022-08-07T07:32:28.996Z,1.52
2022-08-07T07:38:32.245Z,1.23
2022-08-07T07:44:34.857Z,1.30
2022-08-07T07:50:40.101Z,1.20
2022-08-07T07:56:43.371Z,1.27
2022-08-07T08:03:05.051Z,1.42
2022-08-07T08:09:08.513Z,1.30
2022-08-07T08:15:11.261Z,1.10
2022-08-07T08:21:55.673Z,1.27
2022-08-07T08:28:03.684Z,1.20
2022-08-07T08:34:06.029Z,1.10
2022-08-07T08:40:16.235Z,1.00
2022-08-07T08:46:32.057Z,0.90
2022-08-07T08:52:35.951Z,1.00
2022-08-07T08:59:06.376Z,0.80
2022-08-07T09:05:26.449Z,1.00
2022-08-07T09:11:43.402Z,1.00
2022-08-07T09:18:07.244Z,0.90
2022-08-07T09:24:56.065Z,0.90
2022-08-07T09:30:59.687Z,1.77
2022-08-07T09:37:48.609Z,1.27
2022-08-07T09:44:05.779Z,1.10
2022-08-07T09:50:30.046Z,2.50
2022-08-07T09:56:43.751Z,1.00
2022-08-07T10:03:08.439Z,1.10
2022-08-07T10:09:59.343Z,1.10
2022-08-07T10:16:08.806Z,1.00
2022-08-07T10:22:15.833Z,1.00
2022-08-07T10:28:41.232Z,1.08
2022-08-07T10:35:14.834Z,0.97
2022-08-07T10:41:53.052Z,1.38
2022-08-07T10:47:53.506Z,1.10
2022-08-07T10:54:08.236Z,1.08
2022-08-07T11:00:36.475Z,1.13
2022-08-07T11:06:41.973Z,1.13
2022-08-07T11:13:02.121Z,0.93
2022-08-07T11:19:06.803Z,1.10
2022-08-07T11:25:11.378Z,0.90
2022-08-07T11:31:34.924Z,1.00
2022-08-07T11:37:38.328Z,1.10
2022-08-07T11:44:10.889Z,1.27
2022-08-07T11:50:32.462Z,0.93
2022-08-07T11:56:56.395Z,1.00
2022-08-07T12:03:04.742Z,1.00
2022-08-07T12:09:16.476Z,1.10
2022-08-07T12:15:46.070Z,1.13
2022-08-07T12:21:55.725Z,1.20
2022-08-07T12:28:30.795Z,1.20
2022-08-07T12:34:34.286Z,1.40
2022-08-07T12:40:47.645Z,1.63
2022-08-07T12:47:09.130Z,1.65
2022-08-07T12:53:17.651Z,2.10
2022-08-07T12:59:22.223Z,1.90
2022-08-07T13:06:03.000Z,2.60
2022-08-07T13:12:02.763Z,1.90
2022-08-07T13:18:25.838Z,2.50
2022-08-07T13:24:43.915Z,2.25
2022-08-07T13:31:06.246Z,3.17
2022-08-07T13:37:27.629Z,2.70
2022-08-07T13:43:29.288Z,2.40
2022-08-07T13:50:33.344Z,2.58
2022-08-07T13:55:59.887Z,2.67
2022-08-07T14:02:15.044Z,2.40
2022-08-07T14:08:20.243Z,2.17
2022-08-07T14:14:28.301Z,2.15
2022-08-07T14:20:43.775Z,2.40
2022-08-07T14:26:51.326Z,3.08
2022-08-07T14:32:56.957Z,3.08
2022-08-07T14:39:03.619Z,4.30
2022-08-07T14:45:21.258Z,3.40
2022-08-07T14:52:04.865Z,4.57
2022-08-07T14:57:58.476Z,4.80
2022-08-07T15:04:06.236Z,4.33
2022-08-07T15:10:11.252Z,4.63
2022-08-07T15:16:16.965Z,4.03
2022-08-07T15:22:31.458Z,2.90
2022-08-07T15:28:41.557Z,2.75
2022-08-07T15:34:56.836Z,2.90
2022-08-07T15:48:00.977Z,2.10
2022-08-07T15:53:52.252Z,2.50
2022-08-07T15:59:56.596Z,1.97
2022-08-07T16:06:01.063Z,1.92
2022-08-07T16:12:29.172Z,1.60
2022-08-07T16:18:49.885Z,1.67
2022-08-07T16:24:56.616Z,1.73
2022-08-07T16:31:12.110Z,1.73
2022-08-07T16:38:04.502Z,1.33
2022-08-07T16:44:46.248Z,1.40
2022-08-07T16:51:20.895Z,1.70
2022-08-07T16:58:02.727Z,1.73
2022-08-07T17:04:32.996Z,1.33
2022-08-07T17:10:34.828Z,1.60
2022-08-07T17:16:44.851Z,1.30
2022-08-07T17:23:18.103Z,1.40
2022-08-07T17:30:15.972Z,1.42
2022-08-07T17:36:20.616Z,1.48
2022-08-07T17:42:33.072Z,1.40
2022-08-07T17:48:42.116Z,1.35
2022-08-07T17:54:53.713Z,1.30
2022-08-07T18:00:57.428Z,1.20
2022-08-07T18:07:20.668Z,1.60
2022-08-07T18:13:45.909Z,1.40
2022-08-07T18:21:06.592Z,1.30
2022-08-07T18:26:18.997Z,1.40
2022-08-07T18:32:20.542Z,1.40
2022-08-07T18:38:58.250Z,1.40
2022-08-07T18:45:43.518Z,1.40
2022-08-07T18:52:34.996Z,1.98
2022-08-07T18:58:37.628Z,3.17
2022-08-07T19:04:56.228Z,1.90
2022-08-07T19:11:35.222Z,2.50
2022-08-07T19:17:59.012Z,1.53
2022-08-07T19:24:06.449Z,1.50
2022-08-07T19:31:01.319Z,1.53
2022-08-07T19:36:34.220Z,1.50
2022-08-07T19:42:42.841Z,1.50
2022-08-07T19:48:53.658Z,1.40
2022-08-07T19:54:58.326Z,1.42
2022-08-07T20:01:02.048Z,1.40
2022-08-07T20:07:09.255Z,1.40
2022-08-07T20:13:23.167Z,1.30
2022-08-07T20:19:28.797Z,1.50
2022-08-07T20:25:51.031Z,1.35
2022-08-07T20:31:55.165Z,2.50
2022-08-07T20:37:59.578Z,1.75
2022-08-07T20:44:02.716Z,1.30
2022-08-07T20:50:05.240Z,1.30
2022-08-07T20:56:10.149Z,1.50
2022-08-07T21:02:34.969Z,1.60
2022-08-07T21:08:41.024Z,1.73
2022-08-07T21:14:48.389Z,1.60
2022-08-07T21:20:59.386Z,1.33
2022-08-07T21:27:06.887Z,1.67
2022-08-07T21:33:38.490Z,1.60
2022-08-07T21:39:56.626Z,1.60
2022-08-07T21:46:08.842Z,1.60
2022-08-07T21:52:33.193Z,1.70
2022-08-07T21:58:45.848Z,1.55
2022-08-07T22:04:53.731Z,1.30
2022-08-07T22:10:59.511Z,1.35
2022-08-07T22:17:04.069Z,1.63
2022-08-07T22:23:17.019Z,1.43
2022-08-07T22:29:37.971Z,1.50
2022-08-07T22:36:04.408Z,1.33
2022-08-07T22:42:19.623Z,1.48
2022-08-07T22:49:00.761Z,1.60
2022-08-07T22:55:23.422Z,1.40
2022-08-07T23:01:51.015Z,1.50
2022-08-07T23:07:56.682Z,1.47
2022-08-07T23:14:17.440Z,1.30
2022-08-07T23:20:52.755Z,1.50
2022-08-07T23:27:06.093Z,1.30
2022-08-07T23:34:34.909Z,1.50
2022-08-07T23:40:07.571Z,1.40
2022-08-07T23:46:28.660Z,1.33
2022-08-07T23:53:11.900Z,1.40
